Main page
METAR-TAF:

METAR-TAF

Airports :

Sonari Airport

Jamshedpur, India

latitude: 22-48-49N, longitude: 086-10-05E, elevation: 146 m

Current weather observation

The report was made 8 hours and 14 minutes ago, at 12:00 UTC
Calm wind
Temperature 24°C
Humidity 69%
Pressure 1011 hPa
Visibility: 3000 m
haze

METAR: VEJS 011200Z 00000KT 3000 HZ NSC 24/18 Q1011

Time: 01:44 (20:14 UTC)

Forecast

The report was made 9 hours and 14 minutes ago, at 11:00 UTC
Forecast valid from 01 at 12 UTC to 01 at 21 UTC
Wind kt from the North
Visibility: 3500 m
haze
Becoming
from 01 at 15 UTC to 01 at 17 UTC
Visibility: 2500 m
mist

TAF: VEJS 011100Z 0112/0121 00000KT 3500 HZ NSC BECMG 0115/0117 2500 BR

Weather observations and forecasts of more than 4000 airports (METAR and TAF reports).

The available stations are represented by yellow and red dots on the map.

Hover mouse over dot to see the name of the station.

Then click to see weather observations and forecasts.

To change the map : click on the green buttons with a black cross to zoom in, on the green button with a dash to zoom out, or on the green arrows for adjacent maps.


METAR-TAF: